首页
METAR-TAF:

METAR-TAF

机场 :

布达佩斯, 匈牙利

布達佩斯李斯特·費倫茨國際機場

纬度: 47-26N, 经度: 019-16E, 海拔: 151米

当前天气观测

该预报发布于10分钟前的00:00 UTC
风速13节,风向西
温度 1°C
湿度 75%
气压 1006 hPa
能见度10公里或以上
1500米以下无云,无积雨云

METAR: LHBP 180000Z 28013KT CAVOK 01/M03 Q1006 NOSIG

时间: 01:10 (00:10 UTC)

预报

该预报发布于55分钟前的23:15 UTC
预报有效从18日的 00点(UTC)到 18日的 24点(UTC)
风速15节,风向西北
能见度10公里或以上
1500米以下无云,无积雨云
短暂存在
从 18日的 00点(UTC)到 18日的 07点(UTC)
风速25节,风向西北,有时为35节阵风
散云层高于1500英尺
小阵雪
成为
从 18日的 10点(UTC)到 18日的 12点(UTC)
风速8节,风向
成为
从 18日的 15点(UTC)到 18日的 18点(UTC)
风速13节,风向西南
多云层高于3000英尺
短暂存在
从 18日的 21点(UTC)到 18日的 24点(UTC)
能見度: 6000
多云层高于1000英尺
多云层高于1500英尺
小雪, 雨, 小雨

TAF: LHBP 172315Z 1800/1824 31015KT CAVOK TEMPO 1800/1807 31025G35KT -SHSN SCT015 BECMG 1810/1812 18008KT BECMG 1815/1818 22013KT BKN030 TEMPO 1821/1824 6000 -SNRA -RA BKN010 BKN015

超过4000个机场的气象观测和天气预报(METAR&TAF报告)。

可查询的气象台以黄色和红色小点在地图上表示。

将鼠标移到小点上方,可查看气象台名称。

然后点击查看天气观测和预报。

如需切换地图:点击带黑十字的绿色按钮放大地图;点击带横线的绿色按钮缩小地图;或者点击绿色箭头查看邻近地区的地图。


METAR-TAF: